New York, New York
Current Conditions -  °F | °C
As of 6:51 AM on Saturday 25 Oct 2014 (Local Time) from KNYC Reporting Station
Clear Clear  
Wind Chill: 11°   Ceiling: Unl
Heat Index: 11°   Visibility: 10mi
Dew Point:   Wind: 7mph
Humidity: 56%   Direction: 290°WNW
Pressure: 29.88"   Gusts: NA
Location:  40.71°N, 74.01°W
Report Text: KNYC 251051Z AUTO 29006KT 10SM CLR 11/02 A2988 RMK AO2 SLP111 T01060022 $
Loading
Personal Weather Stations






























Interactive Weather Map New forecast layout! Learn more

10-Day Weather Forecast

Advertisements
Track Severe Weather on mobile